sensor_id;sensor_type;location;lat;lon;timestamp;P1;durP1;ratioP1;P2;durP2;ratioP2
67571;SDS011;54397;47.506;19.158;2023-03-23T00:02:10;29.83;;;15.95;;
67571;SDS011;54397;47.506;19.158;2023-03-23T00:05:31;36.75;;;15.32;;
67571;SDS011;54397;47.506;19.158;2023-03-23T00:08:52;24.70;;;14.83;;
67571;SDS011;54397;47.506;19.158;2023-03-23T00:12:23;24.35;;;15.93;;
67571;SDS011;54397;47.506;19.158;2023-03-23T00:15:53;33.13;;;15.93;;
67571;SDS011;54397;47.506;19.158;2023-03-23T00:19:17;34.50;;;16.27;;
67571;SDS011;54397;47.506;19.158;2023-03-23T00:22:39;25.17;;;15.27;;
67571;SDS011;54397;47.506;19.158;2023-03-23T00:26:01;33.50;;;15.00;;
67571;SDS011;54397;47.506;19.158;2023-03-23T00:29:24;31.97;;;15.73;;
67571;SDS011;54397;47.506;19.158;2023-03-23T00:32:46;38.40;;;15.50;;
67571;SDS011;54397;47.506;19.158;2023-03-23T00:36:10;29.77;;;15.43;;
67571;SDS011;54397;47.506;19.158;2023-03-23T00:39:35;24.73;;;15.45;;
67571;SDS011;54397;47.506;19.158;2023-03-23T00:43:06;28.37;;;14.97;;
67571;SDS011;54397;47.506;19.158;2023-03-23T00:46:33;26.05;;;15.23;;
67571;SDS011;54397;47.506;19.158;2023-03-23T00:49:54;30.93;;;14.17;;
67571;SDS011;54397;47.506;19.158;2023-03-23T00:53:16;27.77;;;14.73;;
67571;SDS011;54397;47.506;19.158;2023-03-23T00:56:38;26.33;;;14.70;;
67571;SDS011;54397;47.506;19.158;2023-03-23T01:00:01;26.93;;;15.67;;
67571;SDS011;54397;47.506;19.158;2023-03-23T01:03:29;29.23;;;15.50;;
67571;SDS011;54397;47.506;19.158;2023-03-23T01:06:49;25.03;;;14.93;;
67571;SDS011;54397;47.506;19.158;2023-03-23T01:10:14;28.00;;;15.43;;
67571;SDS011;54397;47.506;19.158;2023-03-23T01:13:40;30.80;;;16.10;;
67571;SDS011;54397;47.506;19.158;2023-03-23T01:17:02;36.73;;;16.13;;
67571;SDS011;54397;47.506;19.158;2023-03-23T01:20:25;28.07;;;15.70;;
67571;SDS011;54397;47.506;19.158;2023-03-23T01:23:51;31.60;;;15.73;;
67571;SDS011;54397;47.506;19.158;2023-03-23T01:27:11;28.17;;;15.77;;
67571;SDS011;54397;47.506;19.158;2023-03-23T01:30:32;26.37;;;16.00;;
67571;SDS011;54397;47.506;19.158;2023-03-23T01:33:55;26.73;;;15.90;;
67571;SDS011;54397;47.506;19.158;2023-03-23T01:37:16;29.60;;;15.13;;
67571;SDS011;54397;47.506;19.158;2023-03-23T01:40:40;26.20;;;15.30;;
67571;SDS011;54397;47.506;19.158;2023-03-23T01:47:24;27.50;;;15.97;;
67571;SDS011;54397;47.506;19.158;2023-03-23T01:54:15;26.10;;;15.23;;
67571;SDS011;54397;47.506;19.158;2023-03-23T01:57:41;26.90;;;15.93;;
67571;SDS011;54397;47.506;19.158;2023-03-23T02:01:02;27.33;;;15.47;;
67571;SDS011;54397;47.506;19.158;2023-03-23T02:04:31;28.50;;;15.60;;
67571;SDS011;54397;47.506;19.158;2023-03-23T02:07:56;25.63;;;15.40;;
67571;SDS011;54397;47.506;19.158;2023-03-23T02:11:22;23.67;;;15.13;;
67571;SDS011;54397;47.506;19.158;2023-03-23T02:14:45;30.17;;;15.43;;
67571;SDS011;54397;47.506;19.158;2023-03-23T02:18:25;23.83;;;15.00;;
67571;SDS011;54397;47.506;19.158;2023-03-23T02:40:27;23.27;;;13.77;;
67571;SDS011;54397;47.506;19.158;2023-03-23T02:43:53;26.17;;;14.10;;
67571;SDS011;54397;47.506;19.158;2023-03-23T02:47:27;22.73;;;13.83;;
67571;SDS011;54397;47.506;19.158;2023-03-23T02:50:53;20.90;;;13.17;;
67571;SDS011;54397;47.506;19.158;2023-03-23T02:54:16;23.30;;;14.07;;
67571;SDS011;54397;47.506;19.158;2023-03-23T02:57:38;22.37;;;13.73;;
67571;SDS011;54397;47.506;19.158;2023-03-23T03:00:59;24.07;;;14.13;;
67571;SDS011;54397;47.506;19.158;2023-03-23T03:04:33;23.37;;;12.57;;
67571;SDS011;54397;47.506;19.158;2023-03-23T03:12:02;21.57;;;12.93;;
67571;SDS011;54397;47.506;19.158;2023-03-23T03:15:31;24.53;;;13.53;;
67571;SDS011;54397;47.506;19.158;2023-03-23T03:22:39;23.27;;;13.27;;
67571;SDS011;54397;47.506;19.158;2023-03-23T03:26:03;18.13;;;12.00;;
67571;SDS011;54397;47.506;19.158;2023-03-23T03:29:30;25.30;;;12.90;;
67571;SDS011;54397;47.506;19.158;2023-03-23T03:32:58;18.43;;;12.10;;
67571;SDS011;54397;47.506;19.158;2023-03-23T03:36:24;20.77;;;11.37;;
67571;SDS011;54397;47.506;19.158;2023-03-23T03:39:50;20.50;;;12.87;;
67571;SDS011;54397;47.506;19.158;2023-03-23T03:43:13;23.13;;;12.33;;
67571;SDS011;54397;47.506;19.158;2023-03-23T03:46:39;20.10;;;12.07;;
67571;SDS011;54397;47.506;19.158;2023-03-23T03:50:04;23.60;;;12.98;;
67571;SDS011;54397;47.506;19.158;2023-03-23T03:53:28;24.50;;;12.70;;
67571;SDS011;54397;47.506;19.158;2023-03-23T03:56:50;22.17;;;11.93;;
67571;SDS011;54397;47.506;19.158;2023-03-23T04:00:17;20.47;;;11.57;;
67571;SDS011;54397;47.506;19.158;2023-03-23T04:03:38;35.33;;;19.20;;
67571;SDS011;54397;47.506;19.158;2023-03-23T04:06:59;27.47;;;13.60;;
67571;SDS011;54397;47.506;19.158;2023-03-23T04:10:21;24.80;;;12.93;;
67571;SDS011;54397;47.506;19.158;2023-03-23T04:13:42;19.67;;;13.37;;
67571;SDS011;54397;47.506;19.158;2023-03-23T04:17:05;20.07;;;12.97;;
67571;SDS011;54397;47.506;19.158;2023-03-23T04:20:27;19.73;;;12.20;;
67571;SDS011;54397;47.506;19.158;2023-03-23T04:23:48;22.00;;;12.83;;
67571;SDS011;54397;47.506;19.158;2023-03-23T04:27:08;24.87;;;12.97;;
67571;SDS011;54397;47.506;19.158;2023-03-23T04:30:31;22.13;;;13.63;;
67571;SDS011;54397;47.506;19.158;2023-03-23T04:33:52;22.23;;;14.00;;
67571;SDS011;54397;47.506;19.158;2023-03-23T04:37:15;31.67;;;18.17;;
67571;SDS011;54397;47.506;19.158;2023-03-23T04:40:38;31.87;;;16.93;;
67571;SDS011;54397;47.506;19.158;2023-03-23T04:44:01;40.37;;;22.23;;
67571;SDS011;54397;47.506;19.158;2023-03-23T04:47:24;43.87;;;22.93;;
67571;SDS011;54397;47.506;19.158;2023-03-23T04:50:50;42.20;;;21.70;;
67571;SDS011;54397;47.506;19.158;2023-03-23T04:54:12;41.97;;;22.90;;
67571;SDS011;54397;47.506;19.158;2023-03-23T04:57:32;51.87;;;27.70;;
67571;SDS011;54397;47.506;19.158;2023-03-23T05:00:55;39.53;;;21.13;;
67571;SDS011;54397;47.506;19.158;2023-03-23T05:04:16;37.90;;;21.33;;
67571;SDS011;54397;47.506;19.158;2023-03-23T05:07:39;137.10;;;65.60;;
67571;SDS011;54397;47.506;19.158;2023-03-23T05:11:02;45.87;;;23.20;;
67571;SDS011;54397;47.506;19.158;2023-03-23T05:14:23;37.80;;;20.67;;
67571;SDS011;54397;47.506;19.158;2023-03-23T05:17:50;39.27;;;20.20;;
67571;SDS011;54397;47.506;19.158;2023-03-23T05:21:12;30.10;;;17.67;;
67571;SDS011;54397;47.506;19.158;2023-03-23T05:24:33;27.37;;;16.87;;
67571;SDS011;54397;47.506;19.158;2023-03-23T05:27:53;27.80;;;15.93;;
67571;SDS011;54397;47.506;19.158;2023-03-23T05:31:14;27.13;;;14.43;;
67571;SDS011;54397;47.506;19.158;2023-03-23T05:34:35;28.43;;;14.40;;
67571;SDS011;54397;47.506;19.158;2023-03-23T05:37:55;26.13;;;14.40;;
67571;SDS011;54397;47.506;19.158;2023-03-23T05:41:17;29.67;;;14.83;;
67571;SDS011;54397;47.506;19.158;2023-03-23T05:44:37;27.97;;;15.17;;
67571;SDS011;54397;47.506;19.158;2023-03-23T05:48:03;38.20;;;18.23;;
67571;SDS011;54397;47.506;19.158;2023-03-23T05:51:24;32.07;;;16.53;;
67571;SDS011;54397;47.506;19.158;2023-03-23T05:54:47;20.03;;;12.90;;
67571;SDS011;54397;47.506;19.158;2023-03-23T05:58:08;16.70;;;12.10;;
67571;SDS011;54397;47.506;19.158;2023-03-23T06:01:29;20.60;;;12.30;;
67571;SDS011;54397;47.506;19.158;2023-03-23T06:04:52;23.25;;;13.45;;
67571;SDS011;54397;47.506;19.158;2023-03-23T06:08:17;20.88;;;12.02;;
67571;SDS011;54397;47.506;19.158;2023-03-23T06:11:38;28.10;;;14.70;;
67571;SDS011;54397;47.506;19.158;2023-03-23T06:14:58;25.35;;;14.80;;
67571;SDS011;54397;47.506;19.158;2023-03-23T06:18:19;25.15;;;16.65;;
67571;SDS011;54397;47.506;19.158;2023-03-23T06:21:43;26.88;;;17.83;;
67571;SDS011;54397;47.506;19.158;2023-03-23T06:25:04;29.17;;;15.93;;
67571;SDS011;54397;47.506;19.158;2023-03-23T06:28:26;23.98;;;16.23;;
67571;SDS011;54397;47.506;19.158;2023-03-23T06:31:48;20.15;;;15.45;;
67571;SDS011;54397;47.506;19.158;2023-03-23T06:35:18;15.23;;;10.60;;
67571;SDS011;54397;47.506;19.158;2023-03-23T06:38:39;31.88;;;16.40;;
67571;SDS011;54397;47.506;19.158;2023-03-23T06:41:59;14.43;;;9.82;;
67571;SDS011;54397;47.506;19.158;2023-03-23T06:45:20;12.52;;;9.27;;
67571;SDS011;54397;47.506;19.158;2023-03-23T06:48:41;16.95;;;9.95;;
67571;SDS011;54397;47.506;19.158;2023-03-23T06:52:02;16.90;;;9.88;;
67571;SDS011;54397;47.506;19.158;2023-03-23T06:55:23;19.40;;;9.38;;
67571;SDS011;54397;47.506;19.158;2023-03-23T06:58:46;20.42;;;11.40;;
67571;SDS011;54397;47.506;19.158;2023-03-23T07:02:12;18.25;;;13.40;;
67571;SDS011;54397;47.506;19.158;2023-03-23T07:05:36;15.65;;;10.85;;
67571;SDS011;54397;47.506;19.158;2023-03-23T07:08:56;20.85;;;11.05;;
67571;SDS011;54397;47.506;19.158;2023-03-23T07:12:17;19.60;;;12.13;;
67571;SDS011;54397;47.506;19.158;2023-03-23T07:15:38;16.10;;;11.60;;
67571;SDS011;54397;47.506;19.158;2023-03-23T07:18:59;19.70;;;11.20;;
67571;SDS011;54397;47.506;19.158;2023-03-23T07:22:20;19.65;;;11.73;;
67571;SDS011;54397;47.506;19.158;2023-03-23T07:25:42;21.40;;;12.27;;
67571;SDS011;54397;47.506;19.158;2023-03-23T07:29:03;17.55;;;11.63;;
67571;SDS011;54397;47.506;19.158;2023-03-23T07:32:24;19.50;;;13.68;;
67571;SDS011;54397;47.506;19.158;2023-03-23T07:35:44;21.40;;;15.38;;
67571;SDS011;54397;47.506;19.158;2023-03-23T07:39:08;24.55;;;13.80;;
67571;SDS011;54397;47.506;19.158;2023-03-23T07:42:28;22.85;;;13.80;;
67571;SDS011;54397;47.506;19.158;2023-03-23T07:45:51;34.08;;;22.95;;
67571;SDS011;54397;47.506;19.158;2023-03-23T07:49:12;27.55;;;17.10;;
67571;SDS011;54397;47.506;19.158;2023-03-23T07:52:33;23.60;;;16.95;;
67571;SDS011;54397;47.506;19.158;2023-03-23T07:55:59;21.70;;;12.65;;
67571;SDS011;54397;47.506;19.158;2023-03-23T07:59:20;22.50;;;13.93;;
67571;SDS011;54397;47.506;19.158;2023-03-23T08:02:41;20.80;;;13.50;;
67571;SDS011;54397;47.506;19.158;2023-03-23T08:06:02;16.25;;;13.00;;
67571;SDS011;54397;47.506;19.158;2023-03-23T08:09:24;28.20;;;13.88;;
67571;SDS011;54397;47.506;19.158;2023-03-23T08:12:50;21.70;;;13.88;;
67571;SDS011;54397;47.506;19.158;2023-03-23T08:16:15;26.00;;;13.65;;
67571;SDS011;54397;47.506;19.158;2023-03-23T08:19:35;17.65;;;9.93;;
67571;SDS011;54397;47.506;19.158;2023-03-23T08:22:57;20.02;;;10.65;;
67571;SDS011;54397;47.506;19.158;2023-03-23T08:26:18;15.45;;;10.27;;
67571;SDS011;54397;47.506;19.158;2023-03-23T08:29:44;14.18;;;9.90;;
67571;SDS011;54397;47.506;19.158;2023-03-23T08:33:08;19.48;;;9.52;;
67571;SDS011;54397;47.506;19.158;2023-03-23T08:36:34;14.25;;;9.48;;
67571;SDS011;54397;47.506;19.158;2023-03-23T08:39:57;13.60;;;9.18;;
67571;SDS011;54397;47.506;19.158;2023-03-23T08:43:18;14.38;;;8.00;;
67571;SDS011;54397;47.506;19.158;2023-03-23T08:46:39;13.82;;;9.15;;
67571;SDS011;54397;47.506;19.158;2023-03-23T08:50:02;16.92;;;8.15;;
67571;SDS011;54397;47.506;19.158;2023-03-23T08:53:25;18.05;;;9.75;;
67571;SDS011;54397;47.506;19.158;2023-03-23T08:56:50;14.27;;;7.47;;
67571;SDS011;54397;47.506;19.158;2023-03-23T09:00:12;14.30;;;7.18;;
67571;SDS011;54397;47.506;19.158;2023-03-23T09:03:37;15.73;;;7.63;;
67571;SDS011;54397;47.506;19.158;2023-03-23T09:07:00;16.55;;;7.70;;
67571;SDS011;54397;47.506;19.158;2023-03-23T09:10:21;8.23;;;5.78;;
67571;SDS011;54397;47.506;19.158;2023-03-23T09:13:44;10.70;;;6.30;;
67571;SDS011;54397;47.506;19.158;2023-03-23T09:17:05;8.15;;;5.63;;
67571;SDS011;54397;47.506;19.158;2023-03-23T09:20:27;7.25;;;5.55;;
67571;SDS011;54397;47.506;19.158;2023-03-23T09:23:51;11.30;;;6.00;;
67571;SDS011;54397;47.506;19.158;2023-03-23T09:27:12;11.98;;;6.15;;
67571;SDS011;54397;47.506;19.158;2023-03-23T09:30:33;8.48;;;5.00;;
67571;SDS011;54397;47.506;19.158;2023-03-23T09:33:56;6.75;;;5.18;;
67571;SDS011;54397;47.506;19.158;2023-03-23T09:37:19;7.78;;;5.13;;
67571;SDS011;54397;47.506;19.158;2023-03-23T09:40:53;9.48;;;4.63;;
67571;SDS011;54397;47.506;19.158;2023-03-23T09:51:51;9.18;;;4.95;;
67571;SDS011;54397;47.506;19.158;2023-03-23T09:55:18;16.85;;;4.70;;
67571;SDS011;54397;47.506;19.158;2023-03-23T10:02:12;7.45;;;4.75;;
67571;SDS011;54397;47.506;19.158;2023-03-23T10:09:05;6.35;;;4.10;;
67571;SDS011;54397;47.506;19.158;2023-03-23T10:16:08;14.18;;;6.63;;
67571;SDS011;54397;47.506;19.158;2023-03-23T10:19:48;13.00;;;6.72;;
67571;SDS011;54397;47.506;19.158;2023-03-23T10:27:25;13.85;;;6.78;;
67571;SDS011;54397;47.506;19.158;2023-03-23T10:30:55;12.57;;;5.32;;
67571;SDS011;54397;47.506;19.158;2023-03-23T10:37:58;11.80;;;4.00;;
67571;SDS011;54397;47.506;19.158;2023-03-23T10:41:23;4.38;;;3.70;;
67571;SDS011;54397;47.506;19.158;2023-03-23T10:44:43;4.07;;;3.13;;
67571;SDS011;54397;47.506;19.158;2023-03-23T10:48:11;6.28;;;3.65;;
67571;SDS011;54397;47.506;19.158;2023-03-23T10:51:36;12.32;;;7.03;;
67571;SDS011;54397;47.506;19.158;2023-03-23T10:55:05;4.88;;;3.22;;
67571;SDS011;54397;47.506;19.158;2023-03-23T10:58:33;6.13;;;3.72;;
67571;SDS011;54397;47.506;19.158;2023-03-23T11:01:59;6.70;;;3.10;;
67571;SDS011;54397;47.506;19.158;2023-03-23T11:05:24;4.15;;;3.35;;
67571;SDS011;54397;47.506;19.158;2023-03-23T11:08:56;5.50;;;3.97;;
67571;SDS011;54397;47.506;19.158;2023-03-23T11:12:22;7.13;;;5.32;;
67571;SDS011;54397;47.506;19.158;2023-03-23T11:15:44;10.60;;;4.90;;
67571;SDS011;54397;47.506;19.158;2023-03-23T11:19:13;10.88;;;4.00;;
67571;SDS011;54397;47.506;19.158;2023-03-23T11:22:37;5.28;;;3.30;;
67571;SDS011;54397;47.506;19.158;2023-03-23T11:26:14;7.82;;;4.50;;
67571;SDS011;54397;47.506;19.158;2023-03-23T11:29:54;6.15;;;3.70;;
67571;SDS011;54397;47.506;19.158;2023-03-23T11:33:17;6.55;;;3.10;;
67571;SDS011;54397;47.506;19.158;2023-03-23T11:36:40;5.88;;;3.20;;
67571;SDS011;54397;47.506;19.158;2023-03-23T11:43:29;6.15;;;3.00;;
67571;SDS011;54397;47.506;19.158;2023-03-23T11:47:07;12.00;;;4.75;;
67571;SDS011;54397;47.506;19.158;2023-03-23T11:50:44;10.50;;;3.70;;
67571;SDS011;54397;47.506;19.158;2023-03-23T11:57:41;5.78;;;3.40;;
67571;SDS011;54397;47.506;19.158;2023-03-23T12:01:06;2.63;;;2.28;;
67571;SDS011;54397;47.506;19.158;2023-03-23T12:34:58;6.57;;;4.20;;
67571;SDS011;54397;47.506;19.158;2023-03-23T12:42:23;7.63;;;2.85;;
67571;SDS011;54397;47.506;19.158;2023-03-23T12:49:41;9.35;;;3.05;;
67571;SDS011;54397;47.506;19.158;2023-03-23T12:56:54;4.90;;;2.63;;
67571;SDS011;54397;47.506;19.158;2023-03-23T13:00:19;5.75;;;2.50;;
67571;SDS011;54397;47.506;19.158;2023-03-23T13:03:48;2.58;;;2.38;;
67571;SDS011;54397;47.506;19.158;2023-03-23T13:07:13;5.43;;;2.50;;
67571;SDS011;54397;47.506;19.158;2023-03-23T13:14:24;6.43;;;2.80;;
67571;SDS011;54397;47.506;19.158;2023-03-23T13:18:04;4.40;;;2.78;;
67571;SDS011;54397;47.506;19.158;2023-03-23T13:25:19;8.45;;;2.58;;
67571;SDS011;54397;47.506;19.158;2023-03-23T13:29:08;4.40;;;2.50;;
67571;SDS011;54397;47.506;19.158;2023-03-23T13:32:38;4.82;;;2.63;;
67571;SDS011;54397;47.506;19.158;2023-03-23T13:36:26;3.83;;;2.58;;
67571;SDS011;54397;47.506;19.158;2023-03-23T13:39:48;8.30;;;3.30;;
67571;SDS011;54397;47.506;19.158;2023-03-23T13:43:24;4.78;;;2.70;;
67571;SDS011;54397;47.506;19.158;2023-03-23T13:47:07;7.28;;;2.53;;
67571;SDS011;54397;47.506;19.158;2023-03-23T13:51:00;4.10;;;2.92;;
67571;SDS011;54397;47.506;19.158;2023-03-23T14:01:35;6.40;;;2.53;;
67571;SDS011;54397;47.506;19.158;2023-03-23T14:05:11;8.40;;;3.45;;
67571;SDS011;54397;47.506;19.158;2023-03-23T14:12:19;4.68;;;2.70;;
67571;SDS011;54397;47.506;19.158;2023-03-23T14:15:44;3.80;;;2.88;;
67571;SDS011;54397;47.506;19.158;2023-03-23T14:19:27;4.50;;;3.65;;
67571;SDS011;54397;47.506;19.158;2023-03-23T14:22:55;7.32;;;3.42;;
67571;SDS011;54397;47.506;19.158;2023-03-23T14:26:17;3.80;;;3.25;;
67571;SDS011;54397;47.506;19.158;2023-03-23T14:29:41;5.57;;;3.25;;
67571;SDS011;54397;47.506;19.158;2023-03-23T14:33:03;6.63;;;4.10;;
67571;SDS011;54397;47.506;19.158;2023-03-23T14:36:31;6.78;;;3.80;;
67571;SDS011;54397;47.506;19.158;2023-03-23T14:39:56;5.50;;;2.47;;
67571;SDS011;54397;47.506;19.158;2023-03-23T14:43:21;7.45;;;4.35;;
67571;SDS011;54397;47.506;19.158;2023-03-23T14:46:43;4.43;;;2.90;;
67571;SDS011;54397;47.506;19.158;2023-03-23T14:50:06;5.18;;;3.25;;
67571;SDS011;54397;47.506;19.158;2023-03-23T14:53:42;14.30;;;4.18;;
67571;SDS011;54397;47.506;19.158;2023-03-23T15:00:33;4.40;;;3.05;;
67571;SDS011;54397;47.506;19.158;2023-03-23T15:04:03;6.55;;;2.80;;
67571;SDS011;54397;47.506;19.158;2023-03-23T15:07:51;3.75;;;2.35;;
67571;SDS011;54397;47.506;19.158;2023-03-23T15:14:44;3.55;;;2.97;;
67571;SDS011;54397;47.506;19.158;2023-03-23T15:18:14;6.32;;;3.03;;
67571;SDS011;54397;47.506;19.158;2023-03-23T15:21:55;5.20;;;2.63;;
67571;SDS011;54397;47.506;19.158;2023-03-23T15:25:18;3.33;;;2.58;;
67571;SDS011;54397;47.506;19.158;2023-03-23T15:28:42;6.60;;;2.47;;
67571;SDS011;54397;47.506;19.158;2023-03-23T15:32:03;7.43;;;2.53;;
67571;SDS011;54397;47.506;19.158;2023-03-23T15:35:24;3.42;;;2.03;;
67571;SDS011;54397;47.506;19.158;2023-03-23T15:38:48;4.03;;;2.60;;
67571;SDS011;54397;47.506;19.158;2023-03-23T15:42:30;6.05;;;3.13;;
67571;SDS011;54397;47.506;19.158;2023-03-23T15:49:24;10.25;;;2.85;;
67571;SDS011;54397;47.506;19.158;2023-03-23T15:52:45;7.05;;;3.05;;
67571;SDS011;54397;47.506;19.158;2023-03-23T15:56:07;13.98;;;3.13;;
67571;SDS011;54397;47.506;19.158;2023-03-23T15:59:30;4.15;;;3.40;;
67571;SDS011;54397;47.506;19.158;2023-03-23T16:02:56;5.05;;;3.42;;
67571;SDS011;54397;47.506;19.158;2023-03-23T16:06:23;6.53;;;3.45;;
67571;SDS011;54397;47.506;19.158;2023-03-23T16:09:49;3.63;;;2.70;;
67571;SDS011;54397;47.506;19.158;2023-03-23T16:13:11;5.60;;;2.88;;
67571;SDS011;54397;47.506;19.158;2023-03-23T16:16:34;6.90;;;5.38;;
67571;SDS011;54397;47.506;19.158;2023-03-23T16:19:58;4.95;;;2.83;;
67571;SDS011;54397;47.506;19.158;2023-03-23T16:23:19;5.43;;;3.08;;
67571;SDS011;54397;47.506;19.158;2023-03-23T16:26:41;6.18;;;2.80;;
67571;SDS011;54397;47.506;19.158;2023-03-23T16:30:13;5.60;;;4.07;;
67571;SDS011;54397;47.506;19.158;2023-03-23T16:33:35;6.13;;;2.78;;
67571;SDS011;54397;47.506;19.158;2023-03-23T16:36:57;3.03;;;2.40;;
67571;SDS011;54397;47.506;19.158;2023-03-23T16:40:21;4.68;;;2.45;;
67571;SDS011;54397;47.506;19.158;2023-03-23T16:43:44;9.10;;;2.60;;
67571;SDS011;54397;47.506;19.158;2023-03-23T16:47:08;9.18;;;3.47;;
67571;SDS011;54397;47.506;19.158;2023-03-23T16:50:33;3.90;;;2.45;;
67571;SDS011;54397;47.506;19.158;2023-03-23T16:53:55;7.90;;;2.67;;
67571;SDS011;54397;47.506;19.158;2023-03-23T16:57:19;5.90;;;2.50;;
67571;SDS011;54397;47.506;19.158;2023-03-23T17:00:41;5.35;;;2.70;;
67571;SDS011;54397;47.506;19.158;2023-03-23T17:04:04;5.45;;;2.22;;
67571;SDS011;54397;47.506;19.158;2023-03-23T17:07:26;11.50;;;3.15;;
67571;SDS011;54397;47.506;19.158;2023-03-23T17:10:53;4.35;;;2.03;;
67571;SDS011;54397;47.506;19.158;2023-03-23T17:14:14;5.53;;;2.30;;
67571;SDS011;54397;47.506;19.158;2023-03-23T17:17:38;4.82;;;2.17;;
67571;SDS011;54397;47.506;19.158;2023-03-23T17:21:00;3.45;;;2.03;;
67571;SDS011;54397;47.506;19.158;2023-03-23T17:24:24;5.30;;;2.17;;
67571;SDS011;54397;47.506;19.158;2023-03-23T17:27:49;4.47;;;2.42;;
67571;SDS011;54397;47.506;19.158;2023-03-23T17:31:15;5.20;;;2.25;;
67571;SDS011;54397;47.506;19.158;2023-03-23T17:34:40;2.83;;;2.20;;
67571;SDS011;54397;47.506;19.158;2023-03-23T17:38:01;8.10;;;2.63;;
67571;SDS011;54397;47.506;19.158;2023-03-23T17:41:25;5.80;;;2.80;;
67571;SDS011;54397;47.506;19.158;2023-03-23T17:44:47;8.63;;;2.65;;
67571;SDS011;54397;47.506;19.158;2023-03-23T17:48:11;4.07;;;2.83;;
67571;SDS011;54397;47.506;19.158;2023-03-23T17:51:35;6.88;;;3.20;;
67571;SDS011;54397;47.506;19.158;2023-03-23T17:54:57;10.90;;;3.03;;
67571;SDS011;54397;47.506;19.158;2023-03-23T17:58:21;7.50;;;3.58;;
67571;SDS011;54397;47.506;19.158;2023-03-23T18:01:45;8.23;;;2.95;;
67571;SDS011;54397;47.506;19.158;2023-03-23T18:05:09;9.52;;;3.08;;
67571;SDS011;54397;47.506;19.158;2023-03-23T18:08:31;8.80;;;3.20;;
67571;SDS011;54397;47.506;19.158;2023-03-23T18:11:52;12.10;;;3.67;;
67571;SDS011;54397;47.506;19.158;2023-03-23T18:15:16;9.05;;;3.60;;
67571;SDS011;54397;47.506;19.158;2023-03-23T18:18:40;7.85;;;4.72;;
67571;SDS011;54397;47.506;19.158;2023-03-23T18:22:04;9.23;;;4.70;;
67571;SDS011;54397;47.506;19.158;2023-03-23T18:25:26;11.02;;;4.97;;
67571;SDS011;54397;47.506;19.158;2023-03-23T18:28:49;11.00;;;5.70;;
67571;SDS011;54397;47.506;19.158;2023-03-23T18:32:13;16.48;;;6.78;;
67571;SDS011;54397;47.506;19.158;2023-03-23T18:35:37;13.73;;;8.43;;
67571;SDS011;54397;47.506;19.158;2023-03-23T18:38:59;17.70;;;8.00;;
67571;SDS011;54397;47.506;19.158;2023-03-23T18:42:23;25.02;;;7.15;;
67571;SDS011;54397;47.506;19.158;2023-03-23T18:45:51;20.77;;;7.28;;
67571;SDS011;54397;47.506;19.158;2023-03-23T18:49:14;24.42;;;6.10;;
67571;SDS011;54397;47.506;19.158;2023-03-23T18:52:38;14.77;;;6.22;;
67571;SDS011;54397;47.506;19.158;2023-03-23T18:56:06;17.15;;;5.80;;
67571;SDS011;54397;47.506;19.158;2023-03-23T18:59:30;42.83;;;18.95;;
67571;SDS011;54397;47.506;19.158;2023-03-23T19:02:54;22.42;;;7.57;;
67571;SDS011;54397;47.506;19.158;2023-03-23T19:06:21;21.13;;;6.60;;
67571;SDS011;54397;47.506;19.158;2023-03-23T19:09:47;15.80;;;5.95;;
67571;SDS011;54397;47.506;19.158;2023-03-23T19:13:09;20.30;;;7.25;;
67571;SDS011;54397;47.506;19.158;2023-03-23T19:16:32;18.70;;;6.78;;
67571;SDS011;54397;47.506;19.158;2023-03-23T19:19:56;28.05;;;17.45;;
67571;SDS011;54397;47.506;19.158;2023-03-23T19:23:18;12.82;;;7.75;;
67571;SDS011;54397;47.506;19.158;2023-03-23T19:26:42;17.55;;;6.63;;
67571;SDS011;54397;47.506;19.158;2023-03-23T19:30:07;12.43;;;7.07;;
67571;SDS011;54397;47.506;19.158;2023-03-23T19:33:29;16.40;;;7.70;;
67571;SDS011;54397;47.506;19.158;2023-03-23T19:36:51;12.70;;;6.65;;
67571;SDS011;54397;47.506;19.158;2023-03-23T19:40:26;19.02;;;7.38;;
67571;SDS011;54397;47.506;19.158;2023-03-23T19:43:50;27.30;;;10.70;;
67571;SDS011;54397;47.506;19.158;2023-03-23T19:47:12;15.23;;;7.03;;
67571;SDS011;54397;47.506;19.158;2023-03-23T19:50:34;14.90;;;6.30;;
67571;SDS011;54397;47.506;19.158;2023-03-23T19:53:58;21.25;;;6.60;;
67571;SDS011;54397;47.506;19.158;2023-03-23T19:57:23;19.67;;;6.72;;
67571;SDS011;54397;47.506;19.158;2023-03-23T20:00:47;16.08;;;6.47;;
67571;SDS011;54397;47.506;19.158;2023-03-23T20:04:10;12.02;;;6.43;;
67571;SDS011;54397;47.506;19.158;2023-03-23T20:07:35;24.50;;;7.07;;
67571;SDS011;54397;47.506;19.158;2023-03-23T20:11:09;29.27;;;7.70;;
67571;SDS011;54397;47.506;19.158;2023-03-23T20:14:32;22.75;;;6.22;;
67571;SDS011;54397;47.506;19.158;2023-03-23T20:17:55;18.70;;;7.80;;
67571;SDS011;54397;47.506;19.158;2023-03-23T20:21:19;20.42;;;6.95;;
67571;SDS011;54397;47.506;19.158;2023-03-23T20:24:43;19.63;;;6.55;;
67571;SDS011;54397;47.506;19.158;2023-03-23T20:28:07;17.92;;;7.18;;
67571;SDS011;54397;47.506;19.158;2023-03-23T20:31:30;17.25;;;7.65;;
67571;SDS011;54397;47.506;19.158;2023-03-23T20:34:58;19.00;;;6.82;;
67571;SDS011;54397;47.506;19.158;2023-03-23T20:38:26;14.68;;;6.25;;
67571;SDS011;54397;47.506;19.158;2023-03-23T20:41:51;19.23;;;7.25;;
67571;SDS011;54397;47.506;19.158;2023-03-23T20:45:15;20.30;;;7.03;;
67571;SDS011;54397;47.506;19.158;2023-03-23T20:48:37;14.48;;;5.97;;
67571;SDS011;54397;47.506;19.158;2023-03-23T20:52:00;26.55;;;6.63;;
67571;SDS011;54397;47.506;19.158;2023-03-23T20:55:22;13.60;;;6.32;;
67571;SDS011;54397;47.506;19.158;2023-03-23T20:58:46;11.95;;;5.32;;
67571;SDS011;54397;47.506;19.158;2023-03-23T21:02:11;16.13;;;6.20;;
67571;SDS011;54397;47.506;19.158;2023-03-23T21:05:35;18.15;;;6.30;;
67571;SDS011;54397;47.506;19.158;2023-03-23T21:09:00;19.38;;;7.07;;
67571;SDS011;54397;47.506;19.158;2023-03-23T21:12:21;14.02;;;6.35;;
67571;SDS011;54397;47.506;19.158;2023-03-23T21:15:43;11.85;;;6.63;;
67571;SDS011;54397;47.506;19.158;2023-03-23T21:19:05;14.85;;;6.60;;
67571;SDS011;54397;47.506;19.158;2023-03-23T21:22:29;14.82;;;6.72;;
67571;SDS011;54397;47.506;19.158;2023-03-23T21:25:58;27.15;;;8.80;;
67571;SDS011;54397;47.506;19.158;2023-03-23T21:29:21;19.13;;;7.57;;
67571;SDS011;54397;47.506;19.158;2023-03-23T21:32:44;21.05;;;7.78;;
67571;SDS011;54397;47.506;19.158;2023-03-23T21:36:08;17.98;;;8.07;;
67571;SDS011;54397;47.506;19.158;2023-03-23T21:39:30;16.52;;;8.35;;
67571;SDS011;54397;47.506;19.158;2023-03-23T21:42:53;20.05;;;7.97;;
67571;SDS011;54397;47.506;19.158;2023-03-23T21:46:15;22.25;;;7.35;;
67571;SDS011;54397;47.506;19.158;2023-03-23T21:49:40;20.20;;;7.68;;
67571;SDS011;54397;47.506;19.158;2023-03-23T21:53:03;14.93;;;8.05;;
67571;SDS011;54397;47.506;19.158;2023-03-23T21:56:26;15.63;;;7.22;;
67571;SDS011;54397;47.506;19.158;2023-03-23T21:59:51;17.40;;;7.55;;
67571;SDS011;54397;47.506;19.158;2023-03-23T22:03:15;16.50;;;8.25;;
67571;SDS011;54397;47.506;19.158;2023-03-23T22:06:39;15.95;;;8.35;;
67571;SDS011;54397;47.506;19.158;2023-03-23T22:10:02;22.20;;;8.50;;
67571;SDS011;54397;47.506;19.158;2023-03-23T22:13:28;17.67;;;8.68;;